Time;durP1;ratioP1;P1;durP2;ratioP2;P2;SDS_P1;SDS_P2;PMS_P1;PMS_P2;Temp;Humidity;BMP_temperature;BMP_pressure;BME280_temperature;BME280_humidity;BME280_pressure;Samples;Min_cycle;Max_cycle;Signal;HPM_P1;HPM_P2
2022/04/02 00:01:33;;;;;;;0.40;0.40;;;;;;;1.88;61.76;90457.47;5020001;28;20054;-90
2022/04/02 00:04:51;;;;;;;0.63;0.50;;;;;;;1.88;61.01;90456.72;5038300;28;20401;-90
2022/04/02 00:07:49;;;;;;;;;;;;;;;;;;;;;
2022/04/02 00:10:54;;;;;;;0.40;0.40;;;;;;;2.10;59.64;90473.41;5037981;28;20033;-90
2022/04/02 00:13:48;;;;;;;1.55;0.60;;;;;;;2.09;60.39;90472.63;5033505;28;20084;-90
2022/04/02 00:16:35;;;;;;;;;;;;;;;;;;;;;
2022/04/02 00:19:17;;;;;;;0.40;0.40;;;;;;;2.10;60.07;90474.16;5065292;28;20045;-90
2022/04/02 00:21:57;;;;;;;0.70;0.52;;;;;;;1.85;58.97;90437.41;5054380;28;20037;-91
2022/04/02 00:25:01;;;;;;;;;;;;;;;;;;;;;
2022/04/02 00:27:36;;;;;;;0.85;0.50;;;;;;;1.77;60.64;90435.44;5038124;28;20033;-91
2022/04/02 00:30:31;;;;;;;0.63;0.60;;;;;;;2.05;58.26;90471.69;5007038;28;20046;-91
2022/04/02 00:33:45;;;;;;;;;;;;;;;;;;;;;
2022/04/02 00:36:24;;;;;;;0.40;0.40;;;;;;;2.08;59.77;90465.94;5033780;28;20045;-91
2022/04/02 00:39:08;;;;;;;1.25;0.65;;;;;;;2.11;59.65;90464.59;5050961;28;20509;-91
2022/04/02 00:42:07;;;;;;;1.00;0.50;;;;;;;1.92;59.07;90438.84;5035059;28;20041;-90
2022/04/02 00:45:08;;;;;;;0.73;0.55;;;;;;;1.86;59.60;90436.34;5034112;28;20041;-91
2022/04/02 00:48:06;;;;;;;;;;;;;;;;;;;;;
2022/04/02 00:50:41;;;;;;;0.50;0.50;;;;;;;1.82;58.88;90440.56;5030928;28;20170;-90
2022/04/02 00:53:15;;;;;;;0.60;0.60;;;;;;;1.84;57.79;90429.94;5037653;28;20040;-90
2022/04/02 00:56:07;;;;;;;0.63;0.50;;;;;;;2.23;60.08;90496.66;5037449;28;20428;-90
2022/04/02 00:58:47;;;;;;;0.63;0.60;;;;;;;1.86;60.13;90444.06;5002427;28;20037;-89
2022/04/02 01:01:23;;;;;;;0.45;0.43;;;;;;;2.09;59.44;90472.63;5022006;28;20059;-90
2022/04/02 01:04:07;;;;;;;0.43;0.40;;;;;;;1.90;59.08;90436.56;5019148;28;20037;-91
2022/04/02 01:06:52;;;;;;;0.80;0.57;;;;;;;2.03;58.94;90443.56;5020016;28;20038;-90
2022/04/02 01:10:08;;;;;;;0.50;0.50;;;;;;;1.84;59.32;90430.69;5020866;28;20125;-90
2022/04/02 01:13:07;;;;;;;;;;;;;;;;;;;;;
2022/04/02 01:16:19;;;;;;;0.73;0.60;;;;;;;2.12;61.34;90473.88;5021983;28;20037;-90
2022/04/02 01:19:08;;;;;;;0.50;0.50;;;;;;;1.83;60.66;90442.06;5017210;28;20051;-91
2022/04/02 01:22:11;;;;;;;0.50;0.50;;;;;;;2.10;60.78;90474.16;4995802;28;20045;-90
2022/04/02 01:24:52;;;;;;;0.47;0.47;;;;;;;2.20;61.67;90502.38;4989351;28;20041;-89
2022/04/02 01:28:01;;;;;;;;;;;;;;;;;;;;;
2022/04/02 01:31:15;;;;;;;0.50;0.50;;;;;;;1.97;60.71;90462.00;5021831;28;20076;-89
2022/04/02 01:37:35;;;;;;;0.43;0.43;;;;;;;1.95;60.99;90454.53;5003879;28;20296;-91
2022/04/02 01:40:37;;;;;;;;;;;;;;;;;;;;;
2022/04/02 01:44:01;;;;;;;1.10;0.60;;;;;;;2.17;60.51;90490.06;5035616;28;20057;-90
2022/04/02 01:46:58;;;;;;;0.50;0.50;;;;;;;2.08;60.44;90491.75;5019732;28;20108;-90
2022/04/02 01:50:01;;;;;;;;;;;;;;;;;;;;;
2022/04/02 01:53:08;;;;;;;0.60;0.60;;;;;;;1.96;62.27;90463.03;5042097;28;20037;-89
2022/04/02 01:56:08;;;;;;;1.05;0.60;;;;;;;2.06;62.39;90499.00;5016666;28;20041;-90
2022/04/02 02:01:55;;;;;;;1.23;0.40;;;;;;;1.67;62.64;90458.84;4983708;28;20058;-90
2022/04/02 02:05:03;;;;;;;;;;;;;;;;;;;;;
2022/04/02 02:07:39;;;;;;;1.55;0.60;;;;;;;1.85;62.34;90472.75;4997049;28;19944;-90
2022/04/02 02:10:54;;;;;;;;;;;;;;;;;;;;;
2022/04/02 02:13:46;;;;;;;0.52;0.50;;;;;;;1.90;62.52;90500.28;5009594;28;20108;-90
2022/04/02 02:16:35;;;;;;;0.47;0.47;;;;;;;1.82;61.96;90489.56;4999066;28;20033;-89
2022/04/02 02:19:40;;;;;;;0.45;0.45;;;;;;;1.61;62.71;90455.56;5004280;28;20434;-90
2022/04/02 02:22:44;;;;;;;1.65;0.77;;;;;;;1.79;62.73;90474.63;4999996;28;20041;-89
2022/04/02 02:25:31;;;;;;;2.63;0.63;;;;;;;2.11;63.47;90521.38;5007939;28;20490;-90
2022/04/02 02:28:08;;;;;;;0.50;0.50;;;;;;;1.95;63.69;90487.31;5006558;28;20091;-90
2022/04/02 02:31:07;;;;;;;;;;;;;;;;;;;;;
2022/04/02 02:37:16;;;;;;;0.65;0.60;;;;;;;1.69;65.10;90459.31;4996695;28;20052;-89
2022/04/02 02:39:57;;;;;;;1.85;0.70;;;;;;;1.83;65.22;90473.03;4997647;28;20030;-90
2022/04/02 02:42:58;;;;;;;0.88;0.60;;;;;;;1.91;64.59;90487.09;4998249;28;20069;-90
2022/04/02 02:45:50;;;;;;;;;;;;;;;;;;;;;
2022/04/02 02:49:02;;;;;;;0.65;0.63;;;;;;;1.86;62.61;90485.34;5016064;28;20047;-90
2022/04/02 02:51:44;;;;;;;1.77;0.60;;;;;;;1.66;63.48;90454.72;5000249;28;20096;-90
2022/04/02 02:54:19;;;;;;;0.65;0.55;;;;;;;1.71;63.12;90467.53;5016376;28;20076;-90
2022/04/02 03:00:21;;;;;;;;;;;;;;;;;;;;;
2022/04/02 03:05:57;;;;;;;0.70;0.52;;;;;;;1.63;62.82;90442.38;5020753;28;20160;-89
2022/04/02 03:09:09;;;;;;;0.82;0.80;;;;;;;1.72;63.69;90452.84;5053909;28;20037;-90
2022/04/02 03:12:03;;;;;;;1.67;0.63;;;;;;;2.01;62.65;90497.28;5036350;28;20037;-90
2022/04/02 03:15:01;;;;;;;0.65;0.50;;;;;;;1.73;63.47;90455.13;5021343;28;20533;-90
2022/04/02 03:17:44;;;;;;;;;;;;;;;;;;;;;
2022/04/02 03:20:48;;;;;;;;;;;;;;;;;;;;;
2022/04/02 03:26:44;;;;;;;0.50;0.50;;;;;;;1.83;67.23;90480.78;5039131;28;20052;-90
2022/04/02 03:29:35;;;;;;;0.93;0.70;;;;;;;1.53;69.97;90450.25;5033383;28;20103;-90
2022/04/02 03:32:36;;;;;;;0.85;0.70;;;;;;;1.75;71.10;90490.97;5068838;28;20098;-90
2022/04/02 03:35:31;;;;;;;0.73;0.60;;;;;;;1.63;72.45;90489.56;5012516;28;20112;-90
2022/04/02 03:38:14;;;;;;;1.75;0.80;;;;;;;1.36;73.21;90454.13;5057681;28;20102;-90
2022/04/02 03:41:04;;;;;;;0.70;0.70;;;;;;;1.53;74.44;90491.53;5042197;28;20060;-89
2022/04/02 03:47:27;;;;;;;;;;;;;;;;;;;;;
2022/04/02 03:50:11;;;;;;;1.60;0.80;;;;;;;1.15;77.59;90461.38;5011070;28;20049;-89
2022/04/02 03:56:11;;;;;;;1.98;0.90;;;;;;;1.24;80.15;90472.59;5031349;28;20040;-90
2022/04/02 03:58:56;;;;;;;0.65;0.57;;;;;;;1.07;81.98;90450.91;5023856;28;20045;-90
2022/04/02 04:02:09;;;;;;;1.23;0.90;;;;;;;1.30;85.15;90522.25;5031308;28;20063;-90
2022/04/02 04:04:58;;;;;;;0.93;0.73;;;;;;;0.92;84.95;90457.00;5020657;28;20044;-89
2022/04/02 04:07:37;;;;;;;1.05;0.85;;;;;;;0.92;86.89;90462.91;5023297;28;20041;-90
2022/04/02 04:13:48;;;;;;;2.17;0.98;;;;;;;0.88;88.98;90471.47;5043540;28;20052;-89
2022/04/02 04:16:22;;;;;;;1.95;1.00;;;;;;;0.86;88.22;90476.13;5023662;28;20474;-90
2022/04/02 04:19:31;;;;;;;2.15;1.30;;;;;;;0.82;88.05;90468.22;5049013;28;20041;-90
2022/04/02 04:22:18;;;;;;;1.15;0.82;;;;;;;0.92;89.03;90480.94;5018667;28;20045;-90
2022/04/02 04:25:29;;;;;;;;;;;;;;;;;;;;;
2022/04/02 04:28:32;;;;;;;1.23;0.80;;;;;;;0.80;89.26;90467.72;5022460;28;20398;-90
2022/04/02 04:31:33;;;;;;;1.90;1.03;;;;;;;0.82;88.50;90479.28;5036851;28;20037;-90
2022/04/02 04:34:02;;;;;;;2.15;0.80;;;;;;;0.98;88.86;90497.91;5006089;28;20104;-90
2022/04/02 04:36:38;;;;;;;3.08;1.02;;;;;;;1.04;87.94;90507.09;5021438;28;20041;-90
2022/04/02 04:39:41;;;;;;;;;;;;;;;;;;;;;
2022/04/02 04:42:31;;;;;;;0.95;0.75;;;;;;;1.02;88.15;90514.34;5055522;28;20037;-90
2022/04/02 04:45:34;;;;;;;0.77;0.75;;;;;;;0.86;87.97;90484.66;5022037;28;20075;-89
2022/04/02 04:48:10;;;;;;;1.00;0.80;;;;;;;0.97;88.06;90511.84;5021630;28;20074;-90
2022/04/02 04:51:29;;;;;;;;;;;;;;;;;;;;;
2022/04/02 04:54:14;;;;;;;;;;;;;;;;;;;;;
2022/04/02 05:00:27;;;;;;;;;;;;;;;;;;;;;
2022/04/02 05:03:12;;;;;;;1.00;0.75;;;;;;;0.80;90.70;90521.81;5039473;28;20052;-85
2022/04/02 05:05:47;;;;;;;0.98;0.80;;;;;;;0.74;90.17;90515.94;5010822;28;20040;-84
2022/04/02 05:08:20;;;;;;;0.93;0.80;;;;;;;0.69;90.78;90515.22;4999795;28;20087;-85
2022/04/02 05:10:48;;;;;;;1.63;0.95;;;;;;;0.70;90.48;90522.69;5018248;28;20046;-86
2022/04/02 05:13:19;;;;;;;1.00;0.90;;;;;;;0.91;90.90;90564.44;5044123;28;20035;-85
2022/04/02 05:15:48;;;;;;;2.25;0.80;;;;;;;0.89;90.39;90560.63;5017465;28;20048;-85
2022/04/02 05:18:18;;;;;;;0.70;0.70;;;;;;;0.83;91.33;90558.09;4999486;28;20084;-85
2022/04/02 05:20:46;;;;;;;1.73;0.90;;;;;;;1.06;91.43;90593.66;5031447;28;20124;-84
2022/04/02 05:23:14;;;;;;;0.70;0.60;;;;;;;0.79;90.81;90561.50;5040729;28;20120;-84
2022/04/02 05:25:42;;;;;;;1.27;0.90;;;;;;;0.86;90.61;90579.97;5030549;28;20040;-85
2022/04/02 05:28:13;;;;;;;1.02;0.63;;;;;;;0.72;90.99;90556.66;5050901;28;20045;-84
2022/04/02 05:30:43;;;;;;;1.88;1.05;;;;;;;0.76;91.37;90572.31;5024079;28;20128;-85
2022/04/02 05:33:09;;;;;;;0.88;0.82;;;;;;;0.62;90.92;90557.53;5033205;28;20033;-84
2022/04/02 05:35:34;;;;;;;2.53;0.90;;;;;;;0.62;91.19;90552.38;5015419;28;20087;-88
2022/04/02 05:38:00;;;;;;;2.70;0.60;;;;;;;0.90;91.15;90599.00;5010411;28;20441;-84
2022/04/02 05:40:26;;;;;;;2.15;1.23;;;;;;;0.92;90.92;90609.78;5028967;28;20049;-85
2022/04/02 05:42:54;;;;;;;1.50;0.85;;;;;;;0.59;90.65;90550.34;5025898;28;20065;-85
2022/04/02 05:45:20;;;;;;;2.85;0.90;;;;;;;0.93;91.41;90598.44;5045558;28;20040;-85
2022/04/02 05:47:51;;;;;;;1.08;0.90;;;;;;;0.93;90.61;90597.69;5013584;28;20112;-84
2022/04/02 05:50:21;;;;;;;0.80;0.70;;;;;;;0.76;91.42;90572.31;5008764;28;20032;-88
2022/04/02 05:52:49;;;;;;;0.73;0.73;;;;;;;0.68;91.61;90596.88;5024020;28;20111;-84
2022/04/02 05:55:15;;;;;;;1.40;1.00;;;;;;;0.82;92.42;90608.06;5028786;28;20037;-85
2022/04/02 05:57:44;;;;;;;1.20;0.95;;;;;;;0.78;91.43;90586.47;5031469;28;20108;-84
2022/04/02 06:00:12;;;;;;;1.83;1.13;;;;;;;0.68;91.99;90565.97;5045787;28;20040;-84
2022/04/02 06:02:41;;;;;;;1.85;1.23;;;;;;;0.99;92.67;90617.19;5033651;28;20053;-84
2022/04/02 06:05:08;;;;;;;1.02;0.90;;;;;;;0.97;92.51;90609.75;5012782;28;20034;-85
2022/04/02 06:07:34;;;;;;;2.22;1.02;;;;;;;1.00;93.22;90613.56;5028986;28;20083;-84
2022/04/02 06:10:04;;;;;;;2.72;1.33;;;;;;;0.88;93.50;90624.25;5034225;28;20045;-85
2022/04/02 06:12:31;;;;;;;2.40;1.23;;;;;;;0.89;94.55;90618.06;5033687;28;20063;-85
2022/04/02 06:14:58;;;;;;;2.15;1.30;;;;;;;0.76;94.41;90605.81;5019376;28;20033;-84
2022/04/02 06:17:24;;;;;;;3.80;1.20;;;;;;;0.82;95.05;90609.88;5016696;28;20047;-85
2022/04/02 06:19:50;;;;;;;4.82;2.25;;;;;;;0.97;94.77;90630.34;5017334;28;20041;-85
2022/04/02 06:22:15;;;;;;;2.20;1.30;;;;;;;1.00;95.39;90629.03;5033953;28;20033;-84
2022/04/02 06:24:41;;;;;;;2.15;1.30;;;;;;;0.85;95.62;90631.75;4996623;28;20482;-84
2022/04/02 06:27:07;;;;;;;2.80;1.33;;;;;;;1.01;95.08;90633.94;5027841;28;20029;-85
2022/04/02 06:29:32;;;;;;;1.98;1.10;;;;;;;0.94;94.16;90615.41;5013899;28;20041;-85
2022/04/02 06:31:58;;;;;;;2.67;1.50;;;;;;;0.96;93.84;90625.47;4999758;28;20037;-84
2022/04/02 06:34:23;;;;;;;3.00;1.40;;;;;;;0.95;93.46;90627.28;5032091;28;20045;-86
2022/04/02 06:36:49;;;;;;;2.95;1.60;;;;;;;1.08;93.46;90640.53;5000297;28;20044;-85
2022/04/02 06:39:15;;;;;;;4.78;1.33;;;;;;;1.03;94.10;90654.25;5031300;28;20447;-84
2022/04/02 06:41:41;;;;;;;2.88;1.60;;;;;;;0.78;95.60;90652.69;5037156;28;20123;-85
2022/04/02 06:44:08;;;;;;;2.83;1.35;;;;;;;0.76;95.92;90634.91;5030122;28;20075;-87
2022/04/02 06:46:37;;;;;;;2.13;1.40;;;;;;;0.69;97.72;90649.91;5034822;28;20496;-87
2022/04/02 06:49:04;;;;;;;4.00;2.00;;;;;;;0.76;97.42;90655.50;5031088;28;20091;-87
2022/04/02 06:51:32;;;;;;;3.63;1.73;;;;;;;0.82;97.87;90654.44;5023394;28;20060;-86
2022/04/02 06:53:57;;;;;;;4.55;1.90;;;;;;;0.92;96.78;90657.97;5009067;28;20049;-87
2022/04/02 06:56:23;;;;;;;3.70;1.58;;;;;;;0.88;95.78;90637.13;5008439;28;20044;-87
2022/04/02 06:58:49;;;;;;;5.50;2.10;;;;;;;1.02;95.26;90663.78;5015806;28;20457;-87
2022/04/02 07:01:14;;;;;;;4.95;1.52;;;;;;;0.85;95.31;90662.66;5017588;28;20131;-88
2022/04/02 07:03:40;;;;;;;3.85;1.60;;;;;;;0.97;95.21;90655.34;4992353;28;20052;-87
2022/04/02 07:06:05;;;;;;;4.85;2.10;;;;;;;0.83;95.70;90630.22;5015721;28;20414;-86
2022/04/02 07:08:31;;;;;;;3.08;1.80;;;;;;;1.22;92.96;90634.47;5019431;28;20029;-86
2022/04/02 07:10:57;;;;;;;7.88;1.90;;;;;;;2.17;89.38;90642.34;5027731;28;20459;-89
2022/04/02 07:13:26;;;;;;;3.67;1.80;;;;;;;3.46;83.36;90641.81;5048739;28;20036;-89
2022/04/02 07:15:51;;;;;;;3.33;1.80;;;;;;;4.58;76.50;90669.09;5023179;28;20458;-88
2022/04/02 07:18:20;;;;;;;4.72;1.73;;;;;;;3.69;77.73;90634.94;5011406;28;20402;-85
2022/04/02 07:20:51;;;;;;;5.22;1.52;;;;;;;3.41;80.06;90654.84;5020108;28;20045;-87
2022/04/02 07:23:18;;;;;;;5.10;1.50;;;;;;;3.32;81.58;90664.34;5034163;28;20048;-86
2022/04/02 07:25:45;;;;;;;3.67;1.70;;;;;;;3.18;83.38;90661.72;5016046;28;20037;-86
2022/04/02 07:28:11;;;;;;;1.67;1.20;;;;;;;3.29;82.87;90667.50;5037962;28;20040;-85
2022/04/02 07:30:38;;;;;;;2.63;1.50;;;;;;;3.18;81.33;90640.28;5022654;28;20098;-86
2022/04/02 07:33:09;;;;;;;3.63;1.90;;;;;;;3.81;79.99;90672.50;5016754;28;20426;-86
2022/04/02 07:35:41;;;;;;;3.28;1.60;;;;;;;3.51;78.86;90659.84;5018632;28;20052;-85
2022/04/02 07:38:16;;;;;;;3.05;1.67;;;;;;;3.18;83.12;90660.97;5043833;28;20037;-87
2022/04/02 07:40:48;;;;;;;1.55;1.13;;;;;;;2.86;82.86;90690.94;5045594;28;20458;-86
2022/04/02 07:43:23;;;;;;;2.40;1.52;;;;;;;2.67;83.57;90694.31;5035186;28;20073;-86
2022/04/02 07:46:04;;;;;;;1.30;1.02;;;;;;;3.14;81.68;90676.28;5033893;28;20029;-86
2022/04/02 07:48:32;;;;;;;3.35;1.70;;;;;;;3.18;83.13;90686.81;5016680;28;20042;-86
2022/04/02 07:51:00;;;;;;;2.53;1.20;;;;;;;2.65;82.79;90673.16;5030949;28;20049;-87
2022/04/02 07:53:34;;;;;;;3.15;1.52;;;;;;;2.82;83.66;90688.16;5021063;28;20063;-88
2022/04/02 07:56:03;;;;;;;4.65;1.67;;;;;;;3.22;81.76;90672.25;5020901;28;20121;-86
2022/04/02 07:58:32;;;;;;;3.35;1.65;;;;;;;3.87;80.22;90692.81;5053153;28;20036;-87
2022/04/02 08:01:05;;;;;;;4.05;1.50;;;;;;;3.65;77.91;90682.38;5030588;28;20037;-86
2022/04/02 08:03:34;;;;;;;2.72;1.60;;;;;;;3.54;78.60;90703.25;5037663;28;20110;-86
2022/04/02 08:06:00;;;;;;;5.60;1.67;;;;;;;3.00;82.23;90701.34;5037717;28;20485;-86
2022/04/02 08:08:26;;;;;;;3.50;1.58;;;;;;;3.17;83.73;90695.63;5037324;28;20033;-87
2022/04/02 08:11:01;;;;;;;2.88;1.45;;;;;;;3.15;80.30;90701.06;5048261;28;20055;-90
2022/04/02 08:13:29;;;;;;;2.63;1.58;;;;;;;3.27;79.22;90701.41;5004481;28;20042;-85
2022/04/02 08:15:57;;;;;;;4.55;1.80;;;;;;;3.76;78.74;90686.31;5014859;28;20113;-84
2022/04/02 08:18:26;;;;;;;3.75;1.75;;;;;;;3.70;77.95;90687.44;5033809;28;20119;-84
2022/04/02 08:20:52;;;;;;;2.95;1.50;;;;;;;4.15;75.99;90703.16;5026197;28;20047;-85
2022/04/02 08:23:23;;;;;;;4.30;1.63;;;;;;;3.60;77.93;90697.97;5038286;28;20296;-84
2022/04/02 08:26:27;;;;;;;5.18;1.50;;;;;;;4.06;78.47;90721.19;5029869;28;20034;-84
2022/04/02 08:29:18;;;;;;;1.65;1.00;;;;;;;3.63;76.63;90721.47;5007639;28;20122;-85
2022/04/02 08:32:02;;;;;;;4.45;1.60;;;;;;;4.42;75.66;90711.94;5035193;28;20448;-84
2022/04/02 08:35:03;;;;;;;2.15;1.20;;;;;;;4.72;73.66;90736.44;5035437;28;20037;-85
2022/04/02 08:37:44;;;;;;;4.38;1.70;;;;;;;4.77;72.97;90734.50;5034151;28;20063;-85
2022/04/02 08:40:21;;;;;;;3.35;1.60;;;;;;;5.15;72.63;90744.53;5017399;28;20051;-84
2022/04/02 08:43:08;;;;;;;7.00;1.70;;;;;;;4.55;75.00;90737.81;5034628;28;20086;-84
2022/04/02 08:45:49;;;;;;;2.55;1.55;;;;;;;4.94;70.38;90723.50;5034243;28;20509;-84
2022/04/02 08:48:42;;;;;;;3.70;1.88;;;;;;;4.97;71.67;90729.91;5019512;28;20059;-85
2022/04/02 08:51:15;;;;;;;;;;;;;;;4.65;72.76;90742.00;5033655;28;20045;-87
2022/04/02 08:53:52;;;;;;;2.35;1.25;;;;;;;5.05;70.35;90747.38;5029131;28;19913;-84
2022/04/02 08:56:25;;;;;;;4.32;1.50;;;;;;;4.31;73.53;90753.59;5025357;28;20127;-84
2022/04/02 08:59:00;;;;;;;3.20;1.33;;;;;;;3.99;75.68;90766.66;5031480;28;20057;-84
2022/04/02 09:01:30;;;;;;;3.72;1.67;;;;;;;3.82;74.98;90767.22;5053440;28;20044;-86
2022/04/02 09:04:24;;;;;;;2.97;1.45;;;;;;;3.81;75.57;90776.81;5054486;28;20137;-84
2022/04/02 09:07:08;;;;;;;3.03;1.50;;;;;;;3.49;74.87;90762.06;5032376;28;20033;-83
2022/04/02 09:09:52;;;;;;;3.75;1.52;;;;;;;3.30;77.14;90775.81;5051439;28;20040;-84
2022/04/02 09:12:40;;;;;;;4.95;1.50;;;;;;;3.82;76.46;90778.31;5058683;28;20025;-85
2022/04/02 09:15:09;;;;;;;2.70;1.20;;;;;;;3.60;75.43;90780.78;5038813;28;20068;-89
2022/04/02 09:17:56;;;;;;;2.58;1.33;;;;;;;3.60;76.84;90776.38;5033062;28;20037;-84
2022/04/02 09:20:53;;;;;;;5.47;2.10;;;;;;;3.72;74.81;90768.16;5031619;28;20104;-84
2022/04/02 09:23:43;;;;;;;3.42;1.63;;;;;;;4.38;73.47;90773.91;5013260;28;20040;-85
2022/04/02 09:26:14;;;;;;;2.55;1.35;;;;;;;3.93;73.17;90766.72;5043055;28;20522;-84
2022/04/02 09:29:11;;;;;;;5.80;1.83;;;;;;;3.82;75.28;90773.16;5012607;28;20033;-86
2022/04/02 09:31:58;;;;;;;5.65;1.83;;;;;;;4.55;73.58;90794.84;5043179;28;20305;-87
2022/04/02 09:34:45;;;;;;;5.72;1.90;;;;;;;4.53;75.38;90793.59;5017801;28;20094;-86
2022/04/02 09:37:45;;;;;;;2.47;1.48;;;;;;;4.55;73.45;90802.59;5031765;28;20037;-87
2022/04/02 09:40:18;;;;;;;3.83;1.42;;;;;;;4.56;71.54;90778.22;5020182;28;20052;-86
2022/04/02 09:42:46;;;;;;;2.00;1.20;;;;;;;5.03;70.41;90798.75;5029504;28;20128;-87
2022/04/02 09:45:12;;;;;;;3.30;1.90;;;;;;;5.76;70.36;90796.03;5033274;28;20118;-89
2022/04/02 09:48:06;;;;;;;4.65;1.77;;;;;;;5.82;67.91;90798.22;5015453;28;20029;-87
2022/04/02 09:50:34;;;;;;;2.92;1.58;;;;;;;5.56;67.49;90773.94;5034069;28;20038;-89
2022/04/02 09:53:29;;;;;;;6.00;1.90;;;;;;;5.35;68.37;90799.63;5002851;28;20041;-87
2022/04/02 09:56:26;;;;;;;2.83;1.60;;;;;;;4.47;70.07;90792.16;5049881;28;20114;-87
2022/04/02 09:59:05;;;;;;;3.85;1.55;;;;;;;4.38;72.88;90805.78;5026095;28;20094;-87
2022/04/02 10:01:41;;;;;;;4.78;1.98;;;;;;;4.35;72.74;90783.03;5034868;28;20128;-87
2022/04/02 10:04:34;;;;;;;4.35;2.10;;;;;;;5.15;69.30;90791.22;5030382;28;20128;-88
2022/04/02 10:07:03;;;;;;;5.13;1.80;;;;;;;5.31;69.41;90799.41;5029822;28;20044;-87
2022/04/02 10:09:34;;;;;;;3.55;2.17;;;;;;;5.02;70.10;90789.44;5010048;28;20387;-87
2022/04/02 10:12:05;;;;;;;4.40;1.80;;;;;;;4.66;70.68;90792.81;5023817;28;20064;-86
2022/04/02 10:14:33;;;;;;;5.53;1.92;;;;;;;5.63;67.24;90800.28;5009053;28;20060;-87
2022/04/02 10:17:09;;;;;;;5.43;2.05;;;;;;;6.07;65.02;90801.28;5032887;28;20067;-86
2022/04/02 10:19:38;;;;;;;4.85;1.95;;;;;;;6.05;63.82;90801.56;5034525;28;20048;-87
2022/04/02 10:22:07;;;;;;;4.43;2.13;;;;;;;5.97;67.33;90806.75;5029293;28;20397;-87
2022/04/02 10:24:50;;;;;;;4.22;2.10;;;;;;;6.31;65.48;90800.91;5007292;28;20033;-88
2022/04/02 10:27:34;;;;;;;3.60;1.40;;;;;;;5.28;66.58;90804.44;5051262;28;20041;-89
2022/04/02 10:30:00;;;;;;;2.80;1.60;;;;;;;5.45;66.56;90817.56;5020158;28;20108;-86
2022/04/02 10:32:54;;;;;;;7.43;2.20;;;;;;;5.42;67.29;90820.72;5016762;28;20063;-87
2022/04/02 10:35:25;;;;;;;5.50;2.45;;;;;;;5.60;68.11;90814.59;5027482;28;20029;-88
2022/04/02 10:38:03;;;;;;;7.13;1.60;;;;;;;5.35;67.00;90810.00;5032524;28;20041;-87
2022/04/02 10:40:31;;;;;;;3.97;1.83;;;;;;;5.39;68.40;90827.28;5019503;28;20134;-88
2022/04/02 10:43:06;;;;;;;4.72;1.58;;;;;;;5.61;65.13;90836.13;5008998;28;20124;-87
2022/04/02 10:45:39;;;;;;;7.10;1.92;;;;;;;5.09;66.98;90835.72;5025536;28;20040;-87
2022/04/02 10:48:12;;;;;;;4.35;1.90;;;;;;;5.21;67.17;90847.13;5029108;28;20092;-86
2022/04/02 10:50:40;;;;;;;3.67;1.85;;;;;;;5.54;66.07;90831.34;5037929;28;20036;-88
2022/04/02 10:53:08;;;;;;;4.10;1.92;;;;;;;5.05;67.19;90817.41;5012414;28;20033;-87
2022/04/02 10:55:43;;;;;;;3.60;1.80;;;;;;;5.04;67.96;90846.97;5033500;28;20099;-86
2022/04/02 10:58:11;;;;;;;3.03;1.52;;;;;;;5.10;66.12;90845.03;5023104;28;20470;-87
2022/04/02 11:00:39;;;;;;;4.50;2.10;;;;;;;5.30;67.49;90831.63;5025048;28;20029;-88
2022/04/02 11:03:15;;;;;;;4.07;1.77;;;;;;;5.22;67.16;90825.31;5029693;28;20055;-91
2022/04/02 11:05:40;;;;;;;4.32;1.77;;;;;;;4.95;69.61;90846.13;5012333;28;20048;-91
2022/04/02 11:08:12;;;;;;;4.30;2.13;;;;;;;5.14;68.47;90835.63;4999340;28;20470;-90
2022/04/02 11:10:38;;;;;;;4.80;1.70;;;;;;;4.84;67.84;90837.03;5017580;28;20100;-89
2022/04/02 11:13:09;;;;;;;4.47;1.90;;;;;;;5.05;67.42;90850.34;5029635;28;20041;-90
2022/04/02 11:15:46;;;;;;;3.60;1.70;;;;;;;4.67;66.28;90825.44;5019992;28;20068;-91
2022/04/02 11:18:19;;;;;;;2.70;1.45;;;;;;;4.51;68.82;90840.50;5000897;28;20569;-90
2022/04/02 11:21:16;;;;;;;3.33;1.80;;;;;;;4.11;70.06;90816.91;5025938;28;20053;-90
2022/04/02 11:24:12;;;;;;;7.45;1.95;;;;;;;4.27;68.35;90814.03;5030073;28;20043;-90
2022/04/02 11:26:51;;;;;;;5.95;2.33;;;;;;;4.13;68.96;90868.41;5010527;28;20490;-91
2022/04/02 11:29:55;;;;;;;4.00;1.70;;;;;;;3.79;69.51;90853.97;4997545;28;20033;-91
2022/04/02 11:32:58;;;;;;;;;;;;;;;;;;;;;
2022/04/02 11:35:49;;;;;;;;;;;;;;;;;;;;;
2022/04/02 11:38:21;;;;;;;5.15;1.98;;;;;;;4.34;68.81;90892.88;5041236;28;20034;-89
2022/04/02 11:41:21;;;;;;;4.80;1.90;;;;;;;4.33;68.05;90881.00;5043080;28;20055;-91
2022/04/02 11:47:07;;;;;;;6.22;2.20;;;;;;;4.29;68.22;90863.72;5026996;28;20044;-90
2022/04/02 11:50:34;;;;;;;;;;;;;;;;;;;;;
2022/04/02 11:53:14;;;;;;;5.00;2.03;;;;;;;4.26;67.82;90880.63;5044532;28;20044;-91
2022/04/02 11:56:08;;;;;;;;;;;;;;;;;;;;;
2022/04/02 11:58:58;;;;;;;;;;;;;;;;;;;;;
2022/04/02 12:02:02;;;;;;;4.60;1.90;;;;;;;4.43;66.58;90902.59;5012652;28;20057;-91
2022/04/02 12:05:07;;;;;;;3.63;1.90;;;;;;;3.57;69.47;90869.34;5007391;28;20071;-91
2022/04/02 12:07:42;;;;;;;4.78;2.40;;;;;;;4.01;68.20;90927.66;5037197;28;21425;-90
2022/04/02 12:10:18;;;;;;;6.05;2.40;;;;;;;4.14;68.36;90924.31;5010342;28;20044;-91
2022/04/02 12:12:58;;;;;;;5.53;2.15;;;;;;;3.80;67.60;90860.66;5034508;28;20037;-91
2022/04/02 12:15:35;;;;;;;5.07;2.20;;;;;;;3.71;68.23;90909.72;5016692;28;20124;-90
2022/04/02 12:18:30;;;;;;;5.60;1.85;;;;;;;3.85;69.96;90914.97;5019708;28;20061;-91
2022/04/02 12:21:34;;;;;;;4.55;2.13;;;;;;;3.92;67.90;90938.66;5058401;28;20029;-91
2022/04/02 12:24:27;;;;;;;;;;;;;;;;;;;;;
2022/04/02 12:27:17;;;;;;;;;;;;;;;;;;;;;
2022/04/02 12:30:00;;;;;;;4.68;2.22;;;;;;;3.57;68.23;90882.28;5044964;28;20455;-91
2022/04/02 12:32:40;;;;;;;5.70;2.03;;;;;;;3.59;70.02;90887.94;5011369;28;20071;-91
2022/04/02 12:35:33;;;;;;;8.13;2.30;;;;;;;3.64;69.34;90904.13;5018702;28;20129;-89
2022/04/02 12:38:31;;;;;;;4.05;1.65;;;;;;;3.74;68.33;90931.69;5021587;28;20037;-89
2022/04/02 12:41:01;;;;;;;4.00;1.90;;;;;;;3.81;67.98;90934.69;5024291;28;20119;-91
2022/04/02 12:43:56;;;;;;;3.88;2.00;;;;;;;3.80;68.77;90930.56;5032166;28;20061;-90
2022/04/02 12:46:43;;;;;;;;;;;;;;;;;;;;;
2022/04/02 12:49:51;;;;;;;7.80;2.70;;;;;;;4.23;68.08;90912.25;5037540;28;20040;-91
2022/04/02 12:52:38;;;;;;;4.88;2.30;;;;;;;3.85;68.06;90912.38;5011855;28;20492;-91
2022/04/02 12:55:24;;;;;;;4.45;2.03;;;;;;;4.31;68.56;90971.19;4997759;28;20049;-90
2022/04/02 12:58:10;;;;;;;5.30;1.90;;;;;;;4.08;69.13;90983.22;5036419;28;20037;-91
2022/04/02 13:00:50;;;;;;;6.28;2.25;;;;;;;4.12;67.86;90965.28;5010478;28;20041;-91
2022/04/02 13:03:42;;;;;;;4.72;1.90;;;;;;;4.27;67.83;90933.19;5032388;28;20041;-91
2022/04/02 13:06:47;;;;;;;4.55;2.30;;;;;;;4.50;67.16;90993.69;5030977;28;20103;-90
2022/04/02 13:09:46;;;;;;;4.10;2.20;;;;;;;4.42;66.91;90938.13;5026764;28;20049;-90
2022/04/02 13:12:36;;;;;;;4.90;2.25;;;;;;;4.37;66.93;90943.38;5017044;28;20037;-90
2022/04/02 13:15:19;;;;;;;5.40;2.00;;;;;;;4.38;68.15;90919.78;5035459;28;20043;-90
2022/04/02 13:21:15;;;;;;;7.32;2.42;;;;;;;4.86;67.32;90947.16;5043383;28;19916;-91
2022/04/02 13:24:59;;;;;;;4.90;2.38;;;;;;;5.05;67.28;91009.31;5026465;28;20160;-90
2022/04/02 13:28:20;;;;;;;3.55;1.95;;;;;;;4.80;67.62;91003.53;5002230;28;20052;-90
2022/04/02 13:31:14;;;;;;;6.72;2.40;;;;;;;4.37;67.87;90944.16;5035733;28;20034;-91
2022/04/02 13:34:49;;;;;;;;;;;;;;;;;;;;;
2022/04/02 13:37:50;;;;;;;;;;;;;;;;;;;;;
2022/04/02 13:40:37;;;;;;;5.93;2.45;;;;;;;5.02;67.13;90994.31;5048937;28;20032;-91
2022/04/02 13:43:24;;;;;;;5.57;2.40;;;;;;;5.01;67.00;90997.97;5028700;28;20087;-91
2022/04/02 13:49:10;;;;;;;;;;;;;;;;;;;;;
2022/04/02 13:51:59;;;;;;;5.40;2.30;;;;;;;5.30;67.68;91015.09;5030503;28;20824;-90
2022/04/02 13:55:26;;;;;;;6.88;2.92;;;;;;;5.23;65.46;91002.50;5023102;28;20037;-92
2022/04/02 13:58:16;;;;;;;5.68;2.75;;;;;;;5.42;65.30;90960.84;5028668;28;20037;-91
2022/04/02 14:01:16;;;;;;;;;;;;;;;;;;;;;
2022/04/02 14:04:12;;;;;;;6.90;2.95;;;;;;;6.21;64.03;90978.66;5052090;28;20040;-89
2022/04/02 14:07:13;;;;;;;9.00;2.60;;;;;;;5.42;64.99;90976.44;5047087;28;20599;-88
2022/04/02 14:10:13;;;;;;;4.68;2.47;;;;;;;5.26;64.92;90954.44;5056635;28;20111;-88
2022/04/02 14:12:59;;;;;;;;;;;;;;;;;;;;;
2022/04/02 14:15:55;;;;;;;7.85;2.78;;;;;;;5.18;66.57;91023.34;5037762;28;20044;-87
2022/04/02 14:18:24;;;;;;;8.20;3.00;;;;;;;5.49;68.15;91022.75;5023354;28;20033;-87
2022/04/02 14:21:19;;;;;;;7.45;3.10;;;;;;;5.70;65.58;91002.34;5033446;28;20120;-90
2022/04/02 14:24:16;;;;;;;;;;;;;;;;;;;;;
2022/04/02 14:26:50;;;;;;;6.00;2.72;;;;;;;6.00;67.32;91038.06;5016646;28;20768;-88
2022/04/02 14:30:09;;;;;;;4.95;2.53;;;;;;;5.94;65.24;91012.47;5047886;28;20033;-88